sensor_id;sensor_type;location;lat;lon;timestamp;P1;P2;P0
69222;PMS7003;56514;51.816;-0.026;2023-04-19T00:02:52;10.25;10.25;4.50
69222;PMS7003;56514;51.816;-0.026;2023-04-19T00:06:02;13.75;13.75;9.25
69222;PMS7003;56514;51.816;-0.026;2023-04-19T00:09:12;15.50;15.50;12.50
69222;PMS7003;56514;51.816;-0.026;2023-04-19T00:12:21;17.25;17.25;13.75
69222;PMS7003;56514;51.816;-0.026;2023-04-19T00:15:31;21.75;21.75;13.75
69222;PMS7003;56514;51.816;-0.026;2023-04-19T00:18:42;12.00;12.00;9.00
69222;PMS7003;56514;51.816;-0.026;2023-04-19T00:21:51;19.50;17.50;13.00
69222;PMS7003;56514;51.816;-0.026;2023-04-19T00:25:00;15.50;15.50;12.00
69222;PMS7003;56514;51.816;-0.026;2023-04-19T00:27:45;18.75;15.25;10.25
69222;PMS7003;56514;51.816;-0.026;2023-04-19T00:30:30;18.25;17.25;12.75
69222;PMS7003;56514;51.816;-0.026;2023-04-19T00:33:15;14.00;14.00;11.00
69222;PMS7003;56514;51.816;-0.026;2023-04-19T00:36:01;18.25;15.25;10.25
69222;PMS7003;56514;51.816;-0.026;2023-04-19T00:39:10;22.00;15.50;9.50
69222;PMS7003;56514;51.816;-0.026;2023-04-19T00:41:55;11.75;11.75;8.00
69222;PMS7003;56514;51.816;-0.026;2023-04-19T00:44:43;17.75;17.25;12.00
69222;PMS7003;56514;51.816;-0.026;2023-04-19T00:47:28;16.00;14.00;9.50
69222;PMS7003;56514;51.816;-0.026;2023-04-19T00:50:14;18.25;18.25;11.25
69222;PMS7003;56514;51.816;-0.026;2023-04-19T00:52:59;20.50;20.50;14.00
69222;PMS7003;56514;51.816;-0.026;2023-04-19T00:55:44;16.50;16.50;10.75
69222;PMS7003;56514;51.816;-0.026;2023-04-19T00:58:29;18.75;18.75;13.25
69222;PMS7003;56514;51.816;-0.026;2023-04-19T01:01:15;18.25;17.00;11.00
69222;PMS7003;56514;51.816;-0.026;2023-04-19T01:04:00;14.25;14.25;10.25
69222;PMS7003;56514;51.816;-0.026;2023-04-19T01:06:50;19.50;17.00;11.00
69222;PMS7003;56514;51.816;-0.026;2023-04-19T01:09:38;16.75;16.75;12.50
69222;PMS7003;56514;51.816;-0.026;2023-04-19T01:12:24;17.00;17.00;11.00
69222;PMS7003;56514;51.816;-0.026;2023-04-19T01:15:10;17.50;17.50;11.75
69222;PMS7003;56514;51.816;-0.026;2023-04-19T01:17:55;17.75;17.75;12.25
69222;PMS7003;56514;51.816;-0.026;2023-04-19T01:20:40;14.75;14.75;9.00
69222;PMS7003;56514;51.816;-0.026;2023-04-19T01:23:25;16.75;16.75;12.75
69222;PMS7003;56514;51.816;-0.026;2023-04-19T01:26:10;17.50;17.50;13.75
69222;PMS7003;56514;51.816;-0.026;2023-04-19T01:29:18;23.75;23.75;13.75
69222;PMS7003;56514;51.816;-0.026;2023-04-19T01:32:23;18.25;17.75;13.00
69222;PMS7003;56514;51.816;-0.026;2023-04-19T01:35:35;18.50;18.50;14.50
69222;PMS7003;56514;51.816;-0.026;2023-04-19T01:38:44;16.50;16.50;10.00
69222;PMS7003;56514;51.816;-0.026;2023-04-19T01:41:31;19.00;17.25;11.00
69222;PMS7003;56514;51.816;-0.026;2023-04-19T01:44:16;23.50;21.00;14.00
69222;PMS7003;56514;51.816;-0.026;2023-04-19T01:47:00;25.50;23.75;15.75
69222;PMS7003;56514;51.816;-0.026;2023-04-19T01:49:45;22.50;22.50;14.25
69222;PMS7003;56514;51.816;-0.026;2023-04-19T01:52:30;17.50;17.50;13.00
69222;PMS7003;56514;51.816;-0.026;2023-04-19T01:55:14;17.75;17.75;14.25
69222;PMS7003;56514;51.816;-0.026;2023-04-19T01:57:59;20.00;18.00;12.75
69222;PMS7003;56514;51.816;-0.026;2023-04-19T02:00:44;32.00;28.25;18.25
69222;PMS7003;56514;51.816;-0.026;2023-04-19T02:03:29;20.50;20.50;15.00
69222;PMS7003;56514;51.816;-0.026;2023-04-19T02:06:15;14.75;14.75;7.25
69222;PMS7003;56514;51.816;-0.026;2023-04-19T02:08:59;24.00;23.25;16.00
69222;PMS7003;56514;51.816;-0.026;2023-04-19T02:11:44;19.75;19.75;15.00
69222;PMS7003;56514;51.816;-0.026;2023-04-19T02:14:29;22.50;22.50;15.00
69222;PMS7003;56514;51.816;-0.026;2023-04-19T02:17:14;22.50;20.50;14.50
69222;PMS7003;56514;51.816;-0.026;2023-04-19T02:19:59;26.25;21.75;15.50
69222;PMS7003;56514;51.816;-0.026;2023-04-19T02:22:44;19.00;19.00;15.50
69222;PMS7003;56514;51.816;-0.026;2023-04-19T02:25:29;19.25;19.25;15.25
69222;PMS7003;56514;51.816;-0.026;2023-04-19T02:28:14;26.00;26.00;18.33
69222;PMS7003;56514;51.816;-0.026;2023-04-19T02:31:02;24.00;24.00;14.50
69222;PMS7003;56514;51.816;-0.026;2023-04-19T02:33:49;19.25;19.25;15.75
69222;PMS7003;56514;51.816;-0.026;2023-04-19T02:36:34;24.75;24.75;17.75
69222;PMS7003;56514;51.816;-0.026;2023-04-19T02:39:18;20.00;20.00;15.50
69222;PMS7003;56514;51.816;-0.026;2023-04-19T02:42:28;20.50;20.50;14.75
69222;PMS7003;56514;51.816;-0.026;2023-04-19T02:45:16;22.75;22.75;16.50
69222;PMS7003;56514;51.816;-0.026;2023-04-19T02:48:01;27.50;27.50;16.00
69222;PMS7003;56514;51.816;-0.026;2023-04-19T02:50:46;19.25;19.25;14.75
69222;PMS7003;56514;51.816;-0.026;2023-04-19T02:53:31;22.00;22.00;15.00
69222;PMS7003;56514;51.816;-0.026;2023-04-19T02:56:16;24.00;23.00;13.67
69222;PMS7003;56514;51.816;-0.026;2023-04-19T02:59:02;21.50;21.50;16.25
69222;PMS7003;56514;51.816;-0.026;2023-04-19T03:01:48;25.75;25.75;17.00
69222;PMS7003;56514;51.816;-0.026;2023-04-19T03:04:33;26.00;24.50;16.25
69222;PMS7003;56514;51.816;-0.026;2023-04-19T03:07:18;23.33;18.33;12.33
69222;PMS7003;56514;51.816;-0.026;2023-04-19T03:10:03;21.25;18.75;13.50
69222;PMS7003;56514;51.816;-0.026;2023-04-19T03:12:48;24.00;21.00;13.67
69222;PMS7003;56514;51.816;-0.026;2023-04-19T03:15:33;27.67;27.67;19.00
69222;PMS7003;56514;51.816;-0.026;2023-04-19T03:18:17;22.00;21.00;14.33
69222;PMS7003;56514;51.816;-0.026;2023-04-19T03:21:03;19.50;19.00;13.00
69222;PMS7003;56514;51.816;-0.026;2023-04-19T03:23:48;33.00;24.67;15.00
69222;PMS7003;56514;51.816;-0.026;2023-04-19T03:26:33;27.50;24.75;16.00
69222;PMS7003;56514;51.816;-0.026;2023-04-19T03:29:18;18.00;18.00;11.75
69222;PMS7003;56514;51.816;-0.026;2023-04-19T03:32:02;18.00;18.00;14.00
69222;PMS7003;56514;51.816;-0.026;2023-04-19T03:34:47;25.33;23.67;14.33
69222;PMS7003;56514;51.816;-0.026;2023-04-19T03:37:32;26.00;24.50;16.00
69222;PMS7003;56514;51.816;-0.026;2023-04-19T03:40:17;20.75;20.75;14.00
69222;PMS7003;56514;51.816;-0.026;2023-04-19T03:43:02;25.33;23.67;15.67
69222;PMS7003;56514;51.816;-0.026;2023-04-19T03:46:12;24.50;20.75;15.50
69222;PMS7003;56514;51.816;-0.026;2023-04-19T03:49:21;29.33;29.33;17.33
69222;PMS7003;56514;51.816;-0.026;2023-04-19T03:52:30;22.67;21.33;15.00
69222;PMS7003;56514;51.816;-0.026;2023-04-19T03:55:39;32.00;32.00;19.33
69222;PMS7003;56514;51.816;-0.026;2023-04-19T03:58:49;22.00;21.33;15.00
69222;PMS7003;56514;51.816;-0.026;2023-04-19T04:01:59;21.33;21.33;14.33
69222;PMS7003;56514;51.816;-0.026;2023-04-19T04:05:08;21.33;21.33;13.00
69222;PMS7003;56514;51.816;-0.026;2023-04-19T04:08:17;30.00;28.75;14.75
69222;PMS7003;56514;51.816;-0.026;2023-04-19T04:11:26;31.00;27.33;18.33
69222;PMS7003;56514;51.816;-0.026;2023-04-19T04:14:35;21.67;21.67;16.00
69222;PMS7003;56514;51.816;-0.026;2023-04-19T04:17:44;23.33;23.33;15.00
69222;PMS7003;56514;51.816;-0.026;2023-04-19T04:20:53;23.00;23.00;15.67
69222;PMS7003;56514;51.816;-0.026;2023-04-19T04:24:03;30.33;29.67;17.33
69222;PMS7003;56514;51.816;-0.026;2023-04-19T04:26:48;25.67;18.67;14.67
69222;PMS7003;56514;51.816;-0.026;2023-04-19T04:29:35;25.67;23.67;18.67
69222;PMS7003;56514;51.816;-0.026;2023-04-19T04:32:24;24.67;24.67;13.00
69222;PMS7003;56514;51.816;-0.026;2023-04-19T04:35:10;25.00;24.33;18.00
69222;PMS7003;56514;51.816;-0.026;2023-04-19T04:37:54;26.33;26.33;18.00
69222;PMS7003;56514;51.816;-0.026;2023-04-19T04:40:40;23.50;23.50;14.50
69222;PMS7003;56514;51.816;-0.026;2023-04-19T04:44:09;32.33;30.67;19.00
69222;PMS7003;56514;51.816;-0.026;2023-04-19T04:46:55;22.67;22.67;15.67
69222;PMS7003;56514;51.816;-0.026;2023-04-19T04:49:40;24.00;24.00;15.33
69222;PMS7003;56514;51.816;-0.026;2023-04-19T04:52:25;28.00;27.00;17.33
69222;PMS7003;56514;51.816;-0.026;2023-04-19T04:55:10;27.00;25.00;16.67
69222;PMS7003;56514;51.816;-0.026;2023-04-19T04:57:55;23.67;23.67;13.33
69222;PMS7003;56514;51.816;-0.026;2023-04-19T05:00:39;26.00;26.00;18.00
69222;PMS7003;56514;51.816;-0.026;2023-04-19T05:03:24;24.67;24.67;15.67
69222;PMS7003;56514;51.816;-0.026;2023-04-19T05:06:11;30.33;29.00;18.00
69222;PMS7003;56514;51.816;-0.026;2023-04-19T05:08:55;36.00;32.67;21.00
69222;PMS7003;56514;51.816;-0.026;2023-04-19T05:11:40;29.33;27.67;14.67
69222;PMS7003;56514;51.816;-0.026;2023-04-19T05:14:25;24.33;24.33;15.33
69222;PMS7003;56514;51.816;-0.026;2023-04-19T05:17:10;23.67;23.67;18.00
69222;PMS7003;56514;51.816;-0.026;2023-04-19T05:19:55;24.67;21.33;16.00
69222;PMS7003;56514;51.816;-0.026;2023-04-19T05:22:40;23.75;22.25;14.00
69222;PMS7003;56514;51.816;-0.026;2023-04-19T05:25:25;24.33;24.33;16.00
69222;PMS7003;56514;51.816;-0.026;2023-04-19T05:28:34;23.33;22.67;15.00
69222;PMS7003;56514;51.816;-0.026;2023-04-19T05:31:43;28.50;26.75;16.50
69222;PMS7003;56514;51.816;-0.026;2023-04-19T05:34:49;21.75;20.75;12.75
69222;PMS7003;56514;51.816;-0.026;2023-04-19T05:37:59;25.00;25.00;15.33
69222;PMS7003;56514;51.816;-0.026;2023-04-19T05:41:07;19.67;19.67;12.00
69222;PMS7003;56514;51.816;-0.026;2023-04-19T05:44:16;23.67;21.67;14.33
69222;PMS7003;56514;51.816;-0.026;2023-04-19T05:47:26;23.00;21.33;15.00
69222;PMS7003;56514;51.816;-0.026;2023-04-19T05:50:35;22.25;22.25;15.00
69222;PMS7003;56514;51.816;-0.026;2023-04-19T05:53:45;24.67;23.33;14.33
69222;PMS7003;56514;51.816;-0.026;2023-04-19T05:56:53;17.33;17.33;12.67
69222;PMS7003;56514;51.816;-0.026;2023-04-19T06:00:03;23.75;23.75;15.75
69222;PMS7003;56514;51.816;-0.026;2023-04-19T06:03:13;21.75;21.00;14.50
69222;PMS7003;56514;51.816;-0.026;2023-04-19T06:06:22;23.50;21.75;14.00
69222;PMS7003;56514;51.816;-0.026;2023-04-19T06:09:32;25.33;25.33;14.67
69222;PMS7003;56514;51.816;-0.026;2023-04-19T06:12:41;27.75;25.50;16.50
69222;PMS7003;56514;51.816;-0.026;2023-04-19T06:15:26;29.25;27.00;16.00
69222;PMS7003;56514;51.816;-0.026;2023-04-19T06:18:10;29.50;29.50;16.50
69222;PMS7003;56514;51.816;-0.026;2023-04-19T06:20:55;24.50;24.50;14.50
69222;PMS7003;56514;51.816;-0.026;2023-04-19T06:23:44;31.50;27.50;12.75
69222;PMS7003;56514;51.816;-0.026;2023-04-19T06:26:29;29.50;28.50;19.00
69222;PMS7003;56514;51.816;-0.026;2023-04-19T06:29:14;20.25;20.25;13.50
69222;PMS7003;56514;51.816;-0.026;2023-04-19T06:31:59;25.75;24.00;15.25
69222;PMS7003;56514;51.816;-0.026;2023-04-19T06:34:44;26.75;25.00;18.50
69222;PMS7003;56514;51.816;-0.026;2023-04-19T06:37:29;23.25;23.25;15.25
69222;PMS7003;56514;51.816;-0.026;2023-04-19T06:40:14;20.75;20.75;15.50
69222;PMS7003;56514;51.816;-0.026;2023-04-19T06:42:58;22.50;22.50;16.00
69222;PMS7003;56514;51.816;-0.026;2023-04-19T06:45:43;24.00;24.00;15.75
69222;PMS7003;56514;51.816;-0.026;2023-04-19T06:48:28;30.00;28.33;18.33
69222;PMS7003;56514;51.816;-0.026;2023-04-19T06:51:14;23.25;23.25;15.00
69222;PMS7003;56514;51.816;-0.026;2023-04-19T06:53:59;25.50;23.50;16.75
69222;PMS7003;56514;51.816;-0.026;2023-04-19T06:56:47;30.25;29.75;18.75
69222;PMS7003;56514;51.816;-0.026;2023-04-19T06:59:32;31.00;29.50;19.75
69222;PMS7003;56514;51.816;-0.026;2023-04-19T07:02:18;28.25;27.50;15.75
69222;PMS7003;56514;51.816;-0.026;2023-04-19T07:05:04;27.25;24.50;16.50
69222;PMS7003;56514;51.816;-0.026;2023-04-19T07:07:49;24.75;24.75;15.75
69222;PMS7003;56514;51.816;-0.026;2023-04-19T07:10:34;21.75;21.25;15.75
69222;PMS7003;56514;51.816;-0.026;2023-04-19T07:13:19;29.50;29.50;17.25
69222;PMS7003;56514;51.816;-0.026;2023-04-19T07:16:23;31.50;29.50;18.00
69222;PMS7003;56514;51.816;-0.026;2023-04-19T07:19:28;27.25;27.25;17.25
69222;PMS7003;56514;51.816;-0.026;2023-04-19T07:22:33;27.25;25.75;16.75
69222;PMS7003;56514;51.816;-0.026;2023-04-19T07:25:38;32.50;28.50;17.00
69222;PMS7003;56514;51.816;-0.026;2023-04-19T07:28:43;26.00;24.75;16.75
69222;PMS7003;56514;51.816;-0.026;2023-04-19T07:31:52;25.75;24.75;14.00
69222;PMS7003;56514;51.816;-0.026;2023-04-19T07:35:03;29.75;29.50;16.00
69222;PMS7003;56514;51.816;-0.026;2023-04-19T07:38:13;24.50;24.50;16.75
69222;PMS7003;56514;51.816;-0.026;2023-04-19T07:41:21;26.25;26.25;16.50
69222;PMS7003;56514;51.816;-0.026;2023-04-19T07:44:31;22.50;21.75;17.50
69222;PMS7003;56514;51.816;-0.026;2023-04-19T07:47:41;23.50;22.00;14.50
69222;PMS7003;56514;51.816;-0.026;2023-04-19T07:50:50;16.25;16.25;11.75
69222;PMS7003;56514;51.816;-0.026;2023-04-19T07:53:58;26.50;26.00;17.00
69222;PMS7003;56514;51.816;-0.026;2023-04-19T07:57:08;18.75;18.75;14.75
69222;PMS7003;56514;51.816;-0.026;2023-04-19T08:00:18;21.00;21.00;15.00
69222;PMS7003;56514;51.816;-0.026;2023-04-19T08:03:29;23.00;21.50;14.00
69222;PMS7003;56514;51.816;-0.026;2023-04-19T08:06:40;26.00;26.00;17.00
69222;PMS7003;56514;51.816;-0.026;2023-04-19T08:09:50;30.50;29.50;16.50
69222;PMS7003;56514;51.816;-0.026;2023-04-19T08:12:59;24.25;23.50;15.00
69222;PMS7003;56514;51.816;-0.026;2023-04-19T08:16:09;29.50;28.00;15.50
69222;PMS7003;56514;51.816;-0.026;2023-04-19T08:18:54;21.50;21.50;12.75
69222;PMS7003;56514;51.816;-0.026;2023-04-19T08:21:40;28.00;27.75;16.75
69222;PMS7003;56514;51.816;-0.026;2023-04-19T08:24:25;24.75;23.50;13.50
69222;PMS7003;56514;51.816;-0.026;2023-04-19T08:27:10;21.25;21.25;16.00
69222;PMS7003;56514;51.816;-0.026;2023-04-19T08:29:55;20.25;20.25;13.00
69222;PMS7003;56514;51.816;-0.026;2023-04-19T08:32:40;20.50;20.50;15.50
69222;PMS7003;56514;51.816;-0.026;2023-04-19T08:35:25;26.75;25.25;18.00
69222;PMS7003;56514;51.816;-0.026;2023-04-19T08:38:10;21.00;21.00;13.00
69222;PMS7003;56514;51.816;-0.026;2023-04-19T08:40:57;23.00;21.50;14.00
69222;PMS7003;56514;51.816;-0.026;2023-04-19T08:43:42;19.25;19.25;12.50
69222;PMS7003;56514;51.816;-0.026;2023-04-19T08:46:29;24.25;24.00;13.50
69222;PMS7003;56514;51.816;-0.026;2023-04-19T08:49:15;22.00;22.00;16.00
69222;PMS7003;56514;51.816;-0.026;2023-04-19T08:52:05;21.00;20.50;15.25
69222;PMS7003;56514;51.816;-0.026;2023-04-19T08:54:55;16.25;16.25;13.75
69222;PMS7003;56514;51.816;-0.026;2023-04-19T08:57:41;23.50;23.50;17.75
69222;PMS7003;56514;51.816;-0.026;2023-04-19T09:00:26;18.50;18.50;15.00
69222;PMS7003;56514;51.816;-0.026;2023-04-19T09:03:11;19.00;19.00;14.00
69222;PMS7003;56514;51.816;-0.026;2023-04-19T09:05:56;17.25;17.00;12.50
69222;PMS7003;56514;51.816;-0.026;2023-04-19T09:08:41;16.75;16.75;12.25
69222;PMS7003;56514;51.816;-0.026;2023-04-19T09:11:36;23.00;23.00;14.00
69222;PMS7003;56514;51.816;-0.026;2023-04-19T09:14:24;19.25;19.25;14.00
69222;PMS7003;56514;51.816;-0.026;2023-04-19T09:17:11;21.75;21.75;16.50
69222;PMS7003;56514;51.816;-0.026;2023-04-19T09:20:17;24.75;24.75;16.75
69222;PMS7003;56514;51.816;-0.026;2023-04-19T09:23:45;23.00;22.50;14.75
69222;PMS7003;56514;51.816;-0.026;2023-04-19T09:26:55;17.75;17.75;14.00
69222;PMS7003;56514;51.816;-0.026;2023-04-19T09:30:01;20.75;20.75;13.00
69222;PMS7003;56514;51.816;-0.026;2023-04-19T09:33:10;23.50;21.75;13.00
69222;PMS7003;56514;51.816;-0.026;2023-04-19T09:36:27;19.00;18.75;14.50
69222;PMS7003;56514;51.816;-0.026;2023-04-19T09:39:37;20.50;20.50;15.50
69222;PMS7003;56514;51.816;-0.026;2023-04-19T09:42:45;19.75;18.25;14.50
69222;PMS7003;56514;51.816;-0.026;2023-04-19T09:45:55;22.25;22.25;17.25
69222;PMS7003;56514;51.816;-0.026;2023-04-19T09:52:24;18.50;17.50;13.00
69222;PMS7003;56514;51.816;-0.026;2023-04-19T09:55:34;24.25;24.25;15.25
69222;PMS7003;56514;51.816;-0.026;2023-04-19T09:58:46;17.00;16.25;12.50
69222;PMS7003;56514;51.816;-0.026;2023-04-19T10:01:55;20.00;20.00;14.75
69222;PMS7003;56514;51.816;-0.026;2023-04-19T10:05:09;19.25;19.25;14.75
69222;PMS7003;56514;51.816;-0.026;2023-04-19T10:08:20;18.50;17.50;13.00
69222;PMS7003;56514;51.816;-0.026;2023-04-19T10:11:32;17.25;17.25;13.00
69222;PMS7003;56514;51.816;-0.026;2023-04-19T10:14:57;16.75;16.75;15.00
69222;PMS7003;56514;51.816;-0.026;2023-04-19T10:18:10;16.50;16.50;14.75
69222;PMS7003;56514;51.816;-0.026;2023-04-19T10:20:58;20.25;20.25;14.75
69222;PMS7003;56514;51.816;-0.026;2023-04-19T10:23:52;12.25;12.25;11.00
69222;PMS7003;56514;51.816;-0.026;2023-04-19T10:29:57;17.50;17.50;13.00
69222;PMS7003;56514;51.816;-0.026;2023-04-19T10:32:44;17.75;17.75;11.00
69222;PMS7003;56514;51.816;-0.026;2023-04-19T10:35:36;14.50;14.50;8.00
69222;PMS7003;56514;51.816;-0.026;2023-04-19T10:38:33;15.25;14.00;8.00
69222;PMS7003;56514;51.816;-0.026;2023-04-19T10:41:23;16.50;16.50;12.00
69222;PMS7003;56514;51.816;-0.026;2023-04-19T10:51:14;12.75;12.75;8.00
69222;PMS7003;56514;51.816;-0.026;2023-04-19T10:54:04;15.50;15.50;11.00
69222;PMS7003;56514;51.816;-0.026;2023-04-19T10:56:58;15.25;15.25;10.50
69222;PMS7003;56514;51.816;-0.026;2023-04-19T10:59:43;11.75;11.75;8.50
69222;PMS7003;56514;51.816;-0.026;2023-04-19T11:02:29;13.00;13.00;10.00
69222;PMS7003;56514;51.816;-0.026;2023-04-19T11:05:16;15.00;15.00;11.00
69222;PMS7003;56514;51.816;-0.026;2023-04-19T11:08:03;12.75;12.50;9.00
69222;PMS7003;56514;51.816;-0.026;2023-04-19T11:10:48;14.25;14.25;10.75
69222;PMS7003;56514;51.816;-0.026;2023-04-19T11:13:35;12.75;12.25;10.25
69222;PMS7003;56514;51.816;-0.026;2023-04-19T11:16:40;10.50;10.25;8.25
69222;PMS7003;56514;51.816;-0.026;2023-04-19T11:19:50;12.75;12.75;11.25
69222;PMS7003;56514;51.816;-0.026;2023-04-19T11:23:03;12.00;12.00;9.75
69222;PMS7003;56514;51.816;-0.026;2023-04-19T11:26:22;13.25;12.25;8.75
69222;PMS7003;56514;51.816;-0.026;2023-04-19T11:29:28;10.50;10.50;8.00
69222;PMS7003;56514;51.816;-0.026;2023-04-19T11:32:43;10.50;10.50;8.00
69222;PMS7003;56514;51.816;-0.026;2023-04-19T11:35:52;9.75;9.75;8.25
69222;PMS7003;56514;51.816;-0.026;2023-04-19T11:39:04;11.00;11.00;8.50
69222;PMS7003;56514;51.816;-0.026;2023-04-19T11:42:20;10.00;10.00;8.25
69222;PMS7003;56514;51.816;-0.026;2023-04-19T11:45:30;8.75;8.50;7.25
69222;PMS7003;56514;51.816;-0.026;2023-04-19T11:48:50;8.75;8.75;7.50
69222;PMS7003;56514;51.816;-0.026;2023-04-19T11:52:01;7.25;7.25;7.00
69222;PMS7003;56514;51.816;-0.026;2023-04-19T11:55:17;8.25;8.25;6.75
69222;PMS7003;56514;51.816;-0.026;2023-04-19T11:58:30;11.25;11.25;8.00
69222;PMS7003;56514;51.816;-0.026;2023-04-19T12:01:43;7.50;7.50;6.00
69222;PMS7003;56514;51.816;-0.026;2023-04-19T12:04:30;8.00;8.00;7.00
69222;PMS7003;56514;51.816;-0.026;2023-04-19T12:07:14;7.25;7.25;7.00
69222;PMS7003;56514;51.816;-0.026;2023-04-19T12:10:06;7.50;7.50;6.75
69222;PMS7003;56514;51.816;-0.026;2023-04-19T12:12:53;7.50;7.50;7.50
69222;PMS7003;56514;51.816;-0.026;2023-04-19T12:15:42;8.00;8.00;7.00
69222;PMS7003;56514;51.816;-0.026;2023-04-19T12:18:40;13.00;9.50;8.50
69222;PMS7003;56514;51.816;-0.026;2023-04-19T12:21:29;8.50;8.50;7.00
69222;PMS7003;56514;51.816;-0.026;2023-04-19T12:24:16;7.00;7.00;6.50
69222;PMS7003;56514;51.816;-0.026;2023-04-19T12:27:01;8.75;8.75;8.50
69222;PMS7003;56514;51.816;-0.026;2023-04-19T12:29:47;9.25;9.25;8.25
69222;PMS7003;56514;51.816;-0.026;2023-04-19T12:32:31;8.00;8.00;6.50
69222;PMS7003;56514;51.816;-0.026;2023-04-19T12:35:16;7.75;7.75;6.50
69222;PMS7003;56514;51.816;-0.026;2023-04-19T12:38:01;11.50;10.25;7.25
69222;PMS7003;56514;51.816;-0.026;2023-04-19T12:40:47;8.75;8.75;7.00
69222;PMS7003;56514;51.816;-0.026;2023-04-19T12:43:32;7.00;7.00;6.00
69222;PMS7003;56514;51.816;-0.026;2023-04-19T12:46:17;7.25;7.25;6.75
69222;PMS7003;56514;51.816;-0.026;2023-04-19T12:49:02;6.00;6.00;4.00
69222;PMS7003;56514;51.816;-0.026;2023-04-19T12:51:46;8.50;8.50;7.25
69222;PMS7003;56514;51.816;-0.026;2023-04-19T12:54:31;8.00;8.00;6.00
69222;PMS7003;56514;51.816;-0.026;2023-04-19T12:57:16;9.00;9.00;7.00
69222;PMS7003;56514;51.816;-0.026;2023-04-19T13:00:01;9.50;9.50;7.00
69222;PMS7003;56514;51.816;-0.026;2023-04-19T13:02:45;11.00;11.00;8.50
69222;PMS7003;56514;51.816;-0.026;2023-04-19T13:05:51;8.00;8.00;7.50
69222;PMS7003;56514;51.816;-0.026;2023-04-19T13:08:57;8.00;8.00;7.00
69222;PMS7003;56514;51.816;-0.026;2023-04-19T13:12:06;8.00;7.00;4.75
69222;PMS7003;56514;51.816;-0.026;2023-04-19T13:15:12;8.00;8.00;7.50
69222;PMS7003;56514;51.816;-0.026;2023-04-19T13:18:17;6.50;6.50;6.50
69222;PMS7003;56514;51.816;-0.026;2023-04-19T13:21:28;9.75;9.75;8.50
69222;PMS7003;56514;51.816;-0.026;2023-04-19T13:24:34;4.25;4.25;4.25
69222;PMS7003;56514;51.816;-0.026;2023-04-19T13:27:44;5.50;5.50;5.50
69222;PMS7003;56514;51.816;-0.026;2023-04-19T13:30:54;6.00;6.00;5.25
69222;PMS7003;56514;51.816;-0.026;2023-04-19T13:34:04;6.00;6.00;5.00
69222;PMS7003;56514;51.816;-0.026;2023-04-19T13:37:13;9.00;9.00;7.00
69222;PMS7003;56514;51.816;-0.026;2023-04-19T13:40:22;5.25;5.25;4.25
69222;PMS7003;56514;51.816;-0.026;2023-04-19T13:43:31;7.00;7.00;5.75
69222;PMS7003;56514;51.816;-0.026;2023-04-19T13:46:40;6.75;6.75;5.00
69222;PMS7003;56514;51.816;-0.026;2023-04-19T13:49:50;5.50;5.50;4.25
69222;PMS7003;56514;51.816;-0.026;2023-04-19T13:52:59;6.00;6.00;5.25
69222;PMS7003;56514;51.816;-0.026;2023-04-19T13:56:09;5.00;5.00;4.75
69222;PMS7003;56514;51.816;-0.026;2023-04-19T13:59:18;4.75;4.75;4.25
69222;PMS7003;56514;51.816;-0.026;2023-04-19T14:02:07;6.25;6.25;5.00
69222;PMS7003;56514;51.816;-0.026;2023-04-19T14:04:51;4.00;4.00;3.75
69222;PMS7003;56514;51.816;-0.026;2023-04-19T14:07:38;4.00;4.00;3.75
69222;PMS7003;56514;51.816;-0.026;2023-04-19T14:10:24;4.50;4.50;3.50
69222;PMS7003;56514;51.816;-0.026;2023-04-19T14:13:08;3.75;3.75;3.75
69222;PMS7003;56514;51.816;-0.026;2023-04-19T14:15:54;4.75;4.75;4.00
69222;PMS7003;56514;51.816;-0.026;2023-04-19T14:18:39;3.00;3.00;3.00
69222;PMS7003;56514;51.816;-0.026;2023-04-19T14:21:24;3.00;3.00;3.00
69222;PMS7003;56514;51.816;-0.026;2023-04-19T14:24:10;3.00;3.00;3.00
69222;PMS7003;56514;51.816;-0.026;2023-04-19T14:26:54;4.75;4.75;4.50
69222;PMS7003;56514;51.816;-0.026;2023-04-19T14:29:40;6.50;6.50;4.75
69222;PMS7003;56514;51.816;-0.026;2023-04-19T14:32:25;4.50;4.50;4.00
69222;PMS7003;56514;51.816;-0.026;2023-04-19T14:35:10;7.00;7.00;5.00
69222;PMS7003;56514;51.816;-0.026;2023-04-19T14:37:56;5.00;5.00;4.75
69222;PMS7003;56514;51.816;-0.026;2023-04-19T14:40:41;6.00;6.00;6.00
69222;PMS7003;56514;51.816;-0.026;2023-04-19T14:43:25;4.25;4.25;4.00
69222;PMS7003;56514;51.816;-0.026;2023-04-19T14:46:10;7.00;7.00;5.00
69222;PMS7003;56514;51.816;-0.026;2023-04-19T14:48:55;6.00;6.00;5.00
69222;PMS7003;56514;51.816;-0.026;2023-04-19T14:51:42;5.50;5.50;5.25
69222;PMS7003;56514;51.816;-0.026;2023-04-19T14:54:27;4.50;4.50;3.75
69222;PMS7003;56514;51.816;-0.026;2023-04-19T14:57:12;6.00;6.00;5.00
69222;PMS7003;56514;51.816;-0.026;2023-04-19T14:59:57;4.00;4.00;4.00
69222;PMS7003;56514;51.816;-0.026;2023-04-19T15:03:03;3.20;3.20;3.00
69222;PMS7003;56514;51.816;-0.026;2023-04-19T15:06:11;3.00;3.00;3.00
69222;PMS7003;56514;51.816;-0.026;2023-04-19T15:09:19;3.00;3.00;2.00
69222;PMS7003;56514;51.816;-0.026;2023-04-19T15:12:25;2.00;2.00;2.00
69222;PMS7003;56514;51.816;-0.026;2023-04-19T15:15:12;3.40;3.40;2.00
69222;PMS7003;56514;51.816;-0.026;2023-04-19T15:17:57;4.00;4.00;3.00
69222;PMS7003;56514;51.816;-0.026;2023-04-19T15:20:41;2.00;2.00;2.00
69222;PMS7003;56514;51.816;-0.026;2023-04-19T15:23:26;1.60;1.60;1.20
69222;PMS7003;56514;51.816;-0.026;2023-04-19T15:26:11;2.00;2.00;1.80
69222;PMS7003;56514;51.816;-0.026;2023-04-19T15:28:56;2.00;2.00;2.00
69222;PMS7003;56514;51.816;-0.026;2023-04-19T15:31:41;2.00;2.00;2.00
69222;PMS7003;56514;51.816;-0.026;2023-04-19T15:34:26;2.00;2.00;2.00
69222;PMS7003;56514;51.816;-0.026;2023-04-19T15:37:11;1.80;1.80;1.80
69222;PMS7003;56514;51.816;-0.026;2023-04-19T15:39:56;2.40;2.40;2.00
69222;PMS7003;56514;51.816;-0.026;2023-04-19T15:42:40;3.00;3.00;2.75
69222;PMS7003;56514;51.816;-0.026;2023-04-19T15:45:25;3.20;3.20;2.80
69222;PMS7003;56514;51.816;-0.026;2023-04-19T15:48:10;3.00;3.00;2.50
69222;PMS7003;56514;51.816;-0.026;2023-04-19T15:50:55;2.00;2.00;2.00
69222;PMS7003;56514;51.816;-0.026;2023-04-19T15:53:40;4.00;4.00;3.33
69222;PMS7003;56514;51.816;-0.026;2023-04-19T15:56:25;4.75;4.75;3.00
69222;PMS7003;56514;51.816;-0.026;2023-04-19T15:59:10;2.80;2.80;2.00
69222;PMS7003;56514;51.816;-0.026;2023-04-19T16:01:55;2.50;2.50;2.00
69222;PMS7003;56514;51.816;-0.026;2023-04-19T16:04:40;2.25;2.25;2.00
69222;PMS7003;56514;51.816;-0.026;2023-04-19T16:07:25;1.80;1.80;1.00
69222;PMS7003;56514;51.816;-0.026;2023-04-19T16:10:10;2.00;2.00;2.00
69222;PMS7003;56514;51.816;-0.026;2023-04-19T16:12:56;2.00;2.00;2.00
69222;PMS7003;56514;51.816;-0.026;2023-04-19T16:15:42;2.50;2.50;2.00
69222;PMS7003;56514;51.816;-0.026;2023-04-19T16:18:52;3.00;3.00;2.75
69222;PMS7003;56514;51.816;-0.026;2023-04-19T16:21:56;2.00;2.00;2.00
69222;PMS7003;56514;51.816;-0.026;2023-04-19T16:25:01;2.50;2.50;2.25
69222;PMS7003;56514;51.816;-0.026;2023-04-19T16:28:06;2.75;2.75;2.00
69222;PMS7003;56514;51.816;-0.026;2023-04-19T16:31:16;2.25;2.25;2.00